Time;durP1;ratioP1;P1;durP2;ratioP2;P2;SDS_P1;SDS_P2;PMS_P1;PMS_P2;Temp;Humidity;BMP_temperature;BMP_pressure;BME280_temperature;BME280_humidity;BME280_pressure;Samples;Min_cycle;Max_cycle;Signal;HPM_P1;HPM_P2
2020/12/05 00:01:07;;;;;;;98.47;44.65;;;;;;;2.45;77.90;96186.30;1817803;77;25771;-84
2020/12/05 00:03:34;;;;;;;99.05;45.92;;;;;;;2.47;77.85;96188.28;1786030;77;28541;-84
2020/12/05 00:06:02;;;;;;;97.05;41.85;;;;;;;2.45;77.68;96198.80;1770080;79;25269;-83
2020/12/05 00:08:29;;;;;;;81.02;37.03;;;;;;;2.42;77.72;96198.66;1762821;79;25909;-82
2020/12/05 00:10:57;;;;;;;78.42;38.70;;;;;;;2.41;77.77;96195.71;1778277;79;25959;-85
2020/12/05 00:13:24;;;;;;;75.67;35.73;;;;;;;2.40;77.85;96195.90;1780844;78;26243;-82
2020/12/05 00:15:51;;;;;;;73.47;36.42;;;;;;;2.40;78.00;96199.39;1762856;79;26680;-82
2020/12/05 00:18:19;;;;;;;64.82;32.80;;;;;;;2.41;78.02;96201.04;1762577;79;25716;-85
2020/12/05 00:20:47;;;;;;;65.65;32.75;;;;;;;2.43;78.09;96200.31;1784317;79;25656;-83
2020/12/05 00:23:15;;;;;;;73.15;34.27;;;;;;;2.48;78.18;96197.92;1812544;78;25949;-82
2020/12/05 00:25:43;;;;;;;80.10;35.73;;;;;;;2.52;78.20;96187.72;1776691;79;25703;-85
2020/12/05 00:28:10;;;;;;;75.80;35.38;;;;;;;2.59;78.19;96189.09;1762793;79;27500;-82
2020/12/05 00:30:37;;;;;;;64.45;32.58;;;;;;;2.62;78.20;96184.73;1749605;80;26139;-83
2020/12/05 00:33:05;;;;;;;76.10;34.50;;;;;;;2.66;78.11;96188.63;1715320;80;25733;-82
2020/12/05 00:35:32;;;;;;;59.63;30.95;;;;;;;2.69;78.08;96190.41;1737122;81;25856;-83
2020/12/05 00:37:59;;;;;;;61.70;29.50;;;;;;;2.68;78.10;96188.77;1737142;81;25811;-84
2020/12/05 00:40:27;;;;;;;57.93;29.23;;;;;;;2.70;78.14;96187.25;1726546;81;27498;-82
2020/12/05 00:42:54;;;;;;;61.60;29.65;;;;;;;2.64;78.12;96188.85;1746262;81;26203;-84
2020/12/05 00:45:21;;;;;;;65.95;31.07;;;;;;;2.66;78.17;96187.30;1751134;81;25738;-82
2020/12/05 00:47:49;;;;;;;65.55;31.85;;;;;;;2.69;78.12;96193.59;1754621;81;25757;-82
2020/12/05 00:50:16;;;;;;;67.92;32.90;;;;;;;2.73;78.04;96198.86;1761631;79;25792;-85
2020/12/05 00:52:44;;;;;;;66.07;31.65;;;;;;;2.76;77.93;96190.49;1748619;79;28509;-83
2020/12/05 00:55:11;;;;;;;60.55;29.37;;;;;;;2.73;77.80;96192.20;1744732;79;25717;-82
2020/12/05 00:57:38;;;;;;;60.73;29.25;;;;;;;2.74;77.81;96188.52;1731421;81;25874;-83
2020/12/05 01:00:10;;;;;;;69.40;33.80;;;;;;;2.77;77.81;96194.80;1731312;79;25777;-83
2020/12/05 01:02:37;;;;;;;68.12;32.90;;;;;;;2.75;77.62;96194.17;1739564;79;25718;-82
2020/12/05 01:05:05;;;;;;;68.97;32.88;;;;;;;2.60;77.40;96190.24;1733502;79;28521;-83
2020/12/05 01:07:32;;;;;;;63.98;32.33;;;;;;;2.58;77.64;96197.59;1731996;81;26199;-81
2020/12/05 01:09:59;;;;;;;66.20;33.60;;;;;;;2.58;77.56;96208.75;1732152;79;25891;-82
2020/12/05 01:12:27;;;;;;;71.80;35.35;;;;;;;2.53;77.48;96214.17;1732369;79;26306;-82
2020/12/05 01:14:54;;;;;;;76.82;36.60;;;;;;;2.43;77.48;96213.63;1732455;79;25893;-84
2020/12/05 01:17:25;;;;;;;69.03;35.10;;;;;;;2.45;77.63;96217.44;1732364;80;29233;-84
2020/12/05 01:19:52;;;;;;;78.75;37.90;;;;;;;2.47;77.64;96218.08;1732420;79;26189;-82
2020/12/05 01:22:23;;;;;;;77.85;36.98;;;;;;;2.37;77.50;96209.08;1762736;79;25728;-83
2020/12/05 01:24:51;;;;;;;70.92;34.60;;;;;;;2.36;77.60;96215.92;1742925;79;25809;-84
2020/12/05 01:27:19;;;;;;;64.97;33.25;;;;;;;2.31;77.53;96216.98;1753807;79;26347;-82
2020/12/05 01:29:47;;;;;;;69.53;35.25;;;;;;;2.23;77.54;96215.78;1750329;79;28563;-84
2020/12/05 01:32:15;;;;;;;73.45;35.35;;;;;;;2.18;77.57;96211.00;1762344;79;25754;-82
2020/12/05 01:34:42;;;;;;;74.87;35.65;;;;;;;2.11;77.57;96218.94;1762770;80;25703;-83
2020/12/05 01:37:10;;;;;;;79.25;37.48;;;;;;;2.08;77.77;96212.64;1762704;79;25698;-82
2020/12/05 01:39:37;;;;;;;88.10;41.88;;;;;;;2.10;77.83;96211.13;1762829;79;25859;-83
2020/12/05 01:42:05;;;;;;;82.97;41.50;;;;;;;2.12;77.92;96222.42;1762866;81;27545;-81
2020/12/05 01:44:32;;;;;;;87.88;42.65;;;;;;;2.16;77.96;96230.36;1762898;81;25292;-82
2020/12/05 01:47:00;;;;;;;84.32;41.80;;;;;;;2.16;78.00;96229.86;1757013;79;25715;-82
2020/12/05 01:49:27;;;;;;;77.08;40.05;;;;;;;2.18;78.05;96226.98;1740634;79;25726;-82
2020/12/05 01:51:56;;;;;;;74.27;36.10;;;;;;;2.15;77.87;96227.38;1762978;81;25804;-84
2020/12/05 01:54:24;;;;;;;59.58;31.02;;;;;;;2.12;77.86;96231.73;1762894;79;27565;-82
2020/12/05 01:57:00;;;;;;;60.10;29.05;;;;;;;2.17;77.97;96233.34;1762801;81;26227;-82
2020/12/05 01:59:28;;;;;;;57.53;29.82;;;;;;;2.09;77.71;96238.76;1762890;79;25746;-84
2020/12/05 02:02:06;;;;;;;69.30;34.38;;;;;;;2.02;77.74;96221.39;1762708;79;26464;-82
2020/12/05 02:05:00;;;;;;;69.87;33.55;;;;;;;1.91;77.78;96227.70;1762937;79;25798;-81
2020/12/05 02:07:56;;;;;;;58.95;30.52;;;;;;;1.89;77.98;96224.40;1762518;79;28553;-84
2020/12/05 02:10:27;;;;;;;60.08;31.42;;;;;;;1.83;78.06;96221.13;1762763;79;26244;-81
2020/12/05 02:13:11;;;;;;;61.13;32.83;;;;;;;1.81;78.15;96206.71;1763151;81;25763;-81
2020/12/05 02:15:40;;;;;;;76.70;36.35;;;;;;;1.77;78.10;96214.23;1762991;79;25825;-81
2020/12/05 02:18:09;;;;;;;81.00;38.25;;;;;;;1.71;78.10;96220.28;1762808;79;25775;-81
2020/12/05 02:20:38;;;;;;;72.42;34.05;;;;;;;1.75;78.22;96221.56;1762835;79;27633;-83
2020/12/05 02:23:18;;;;;;;68.72;33.58;;;;;;;1.79;78.20;96219.38;1755443;81;25738;-84
2020/12/05 02:25:56;;;;;;;72.70;35.98;;;;;;;1.73;78.05;96210.28;1732429;81;25729;-84
2020/12/05 02:28:24;;;;;;;83.45;37.35;;;;;;;1.68;78.05;96218.02;1732468;79;25730;-82
2020/12/05 02:30:51;;;;;;;71.65;36.08;;;;;;;1.69;78.23;96216.97;1732589;79;25838;-82
2020/12/05 02:33:20;;;;;;;68.30;32.63;;;;;;;1.78;78.39;96213.73;1754645;79;27596;-83
2020/12/05 02:35:47;;;;;;;67.67;32.35;;;;;;;1.83;78.27;96207.83;1732423;81;26200;-82
2020/12/05 02:38:38;;;;;;;70.85;36.93;;;;;;;1.76;78.01;96216.57;1757359;79;26583;-85
2020/12/05 02:41:05;;;;;;;74.45;35.43;;;;;;;1.67;78.03;96208.38;1757155;80;28273;-82
2020/12/05 02:43:35;;;;;;;64.70;32.53;;;;;;;1.65;78.12;96201.59;1762885;81;25880;-82
2020/12/05 02:46:02;;;;;;;64.37;33.05;;;;;;;1.66;78.21;96210.72;1762798;79;27571;-82
2020/12/05 02:48:29;;;;;;;66.07;33.33;;;;;;;1.71;78.25;96212.30;1762814;79;26144;-82
2020/12/05 02:50:57;;;;;;;61.55;31.25;;;;;;;1.78;78.23;96215.06;1762595;81;25744;-81
2020/12/05 02:53:27;;;;;;;60.60;31.20;;;;;;;1.71;77.94;96221.61;1762557;79;25826;-82
2020/12/05 02:55:55;;;;;;;66.40;32.80;;;;;;;1.64;77.96;96219.38;1762744;79;25988;-82
2020/12/05 02:58:22;;;;;;;67.42;32.88;;;;;;;1.57;77.80;96217.66;1762770;79;28465;-82
2020/12/05 03:00:49;;;;;;;67.95;32.65;;;;;;;1.50;77.89;96220.20;1762661;81;25354;-82
2020/12/05 03:03:17;;;;;;;66.20;34.73;;;;;;;1.48;77.94;96225.38;1772807;78;25691;-83
2020/12/05 03:05:44;;;;;;;65.55;31.82;;;;;;;1.44;78.11;96221.78;1787538;78;25889;-82
2020/12/05 03:08:11;;;;;;;71.02;35.20;;;;;;;1.50;78.22;96221.53;1789624;78;26259;-83
2020/12/05 03:10:39;;;;;;;77.27;35.80;;;;;;;1.52;78.20;96223.52;1757438;78;27498;-84
2020/12/05 03:13:06;;;;;;;73.15;35.08;;;;;;;1.54;78.11;96225.48;1774239;78;25668;-83
2020/12/05 03:15:33;;;;;;;75.75;35.85;;;;;;;1.45;77.90;96237.20;1787513;80;25693;-84
2020/12/05 03:18:00;;;;;;;70.42;34.70;;;;;;;1.39;77.94;96237.45;1789057;78;25798;-83
2020/12/05 03:20:28;;;;;;;70.08;35.75;;;;;;;1.37;78.03;96230.66;1784910;78;25312;-84
2020/12/05 03:22:55;;;;;;;75.00;35.05;;;;;;;1.31;77.98;96225.58;1756391;78;27551;-83
2020/12/05 03:25:23;;;;;;;70.42;35.40;;;;;;;1.32;78.09;96243.69;1756244;80;26134;-84
2020/12/05 03:27:52;;;;;;;75.25;35.55;;;;;;;1.29;78.13;96233.41;1756343;78;25789;-83
2020/12/05 03:30:20;;;;;;;74.05;36.25;;;;;;;1.28;78.16;96229.92;1756359;78;25826;-83
2020/12/05 03:32:48;;;;;;;68.65;35.78;;;;;;;1.30;78.15;96232.41;1778292;78;25845;-83
2020/12/05 03:35:15;;;;;;;70.20;33.18;;;;;;;1.23;78.09;96228.80;1776651;78;27489;-84
2020/12/05 03:37:42;;;;;;;68.80;33.42;;;;;;;1.27;78.26;96228.27;1783563;78;25770;-83
2020/12/05 03:40:10;;;;;;;66.95;34.00;;;;;;;1.27;78.24;96232.26;1761392;80;25825;-84
2020/12/05 03:42:38;;;;;;;74.65;35.55;;;;;;;1.30;78.27;96232.41;1790609;80;25826;-85
2020/12/05 03:45:06;;;;;;;77.17;37.03;;;;;;;1.27;78.11;96227.45;1756483;80;25875;-84
2020/12/05 03:47:33;;;;;;;71.10;35.40;;;;;;;1.24;78.14;96219.83;1776774;80;27530;-82
2020/12/05 03:50:03;;;;;;;72.65;36.70;;;;;;;1.29;78.20;96219.61;1752837;80;25791;-84
2020/12/05 03:52:31;;;;;;;78.65;38.53;;;;;;;1.31;78.15;96217.61;1777237;80;25719;-85
2020/12/05 03:54:58;;;;;;;73.70;36.08;;;;;;;1.31;78.11;96207.47;1752830;80;25801;-83
2020/12/05 03:57:25;;;;;;;81.10;39.85;;;;;;;1.25;78.11;96212.17;1783154;80;25819;-84
2020/12/05 03:59:52;;;;;;;75.78;37.50;;;;;;;1.24;78.15;96202.55;1770805;78;27494;-84
2020/12/05 04:02:20;;;;;;;78.02;39.67;;;;;;;1.25;78.21;96209.02;1755820;80;25795;-83
2020/12/05 04:04:47;;;;;;;71.50;37.10;;;;;;;1.26;78.19;96221.30;1796106;79;25784;-84
2020/12/05 04:07:14;;;;;;;79.90;36.63;;;;;;;1.28;78.12;96214.48;1814957;79;25758;-84
2020/12/05 04:09:42;;;;;;;77.27;38.10;;;;;;;1.27;78.06;96219.47;1815039;79;25675;-83
2020/12/05 04:12:09;;;;;;;71.97;37.17;;;;;;;1.25;78.05;96218.82;1794489;79;27345;-84
2020/12/05 04:14:36;;;;;;;79.55;37.85;;;;;;;1.25;78.05;96217.49;1810615;79;26221;-83
2020/12/05 04:17:06;;;;;;;71.97;35.90;;;;;;;1.18;77.92;96215.25;1804638;79;25869;-83
2020/12/05 04:19:33;;;;;;;71.20;36.05;;;;;;;1.19;78.12;96204.95;1813640;79;26428;-83
2020/12/05 04:22:02;;;;;;;68.33;36.15;;;;;;;1.23;78.16;96208.36;1815004;79;25762;-81
2020/12/05 04:24:29;;;;;;;72.65;37.15;;;;;;;1.31;78.23;96218.94;1814946;79;27561;-82
2020/12/05 04:26:56;;;;;;;70.70;34.15;;;;;;;1.34;78.16;96221.70;1814864;79;25828;-83
2020/12/05 04:29:24;;;;;;;78.00;36.98;;;;;;;1.26;77.98;96219.14;1814008;79;25864;-83
2020/12/05 04:31:51;;;;;;;68.45;35.15;;;;;;;1.11;77.90;96214.31;1782776;79;26525;-82
2020/12/05 04:34:18;;;;;;;67.82;36.17;;;;;;;1.08;78.10;96217.67;1797021;79;25750;-84
2020/12/05 04:36:45;;;;;;;63.45;34.50;;;;;;;1.11;78.24;96220.95;1811811;79;27453;-84
2020/12/05 04:39:13;;;;;;;69.05;35.33;;;;;;;1.13;78.18;96210.97;1804559;79;25822;-85
2020/12/05 04:41:43;;;;;;;69.55;34.50;;;;;;;1.15;78.28;96223.08;1811748;79;25790;-84
2020/12/05 04:44:11;;;;;;;63.75;32.80;;;;;;;1.17;78.24;96233.53;1757463;80;25717;-82
2020/12/05 04:46:38;;;;;;;64.42;33.28;;;;;;;1.17;78.42;96236.19;1797348;79;25846;-84
2020/12/05 04:49:06;;;;;;;67.92;33.20;;;;;;;1.19;78.41;96236.84;1797249;79;27616;-85
2020/12/05 04:51:38;;;;;;;66.15;33.02;;;;;;;1.07;78.34;96235.95;1779635;79;25806;-84
2020/12/05 04:54:06;;;;;;;;;;;;;;;1.11;78.53;96244.37;1796841;79;25761;-82
2020/12/05 04:56:37;;;;;;;61.73;33.92;;;;;;;1.21;78.70;96244.14;1797261;79;26242;-84
2020/12/05 04:59:07;;;;;;;64.67;32.30;;;;;;;1.22;78.54;96252.41;1797281;79;25699;-83
2020/12/05 05:01:37;;;;;;;60.90;31.55;;;;;;;1.14;78.23;96252.49;1797252;79;27543;-84
2020/12/05 05:04:06;;;;;;;64.00;33.10;;;;;;;1.09;78.24;96256.50;1795950;79;25769;-86
2020/12/05 05:06:33;;;;;;;60.60;32.08;;;;;;;1.04;78.21;96265.54;1794475;79;25812;-84
2020/12/05 05:09:01;;;;;;;64.27;32.48;;;;;;;1.03;78.32;96265.22;1794505;79;25822;-83
2020/12/05 05:11:29;;;;;;;64.05;30.97;;;;;;;1.05;78.34;96280.98;1794551;79;25785;-83
2020/12/05 05:14:03;;;;;;;85.03;40.92;;;;;;;1.04;78.39;96270.86;1794525;79;28453;-83
2020/12/05 05:16:31;;;;;;;83.85;38.85;;;;;;;0.98;78.44;96281.36;1794620;79;26197;-84
2020/12/05 05:19:21;;;;;;;62.17;34.35;;;;;;;1.02;78.62;96269.38;1794631;79;25706;-85
2020/12/05 05:21:50;;;;;;;67.90;34.70;;;;;;;1.03;78.52;96271.03;1794677;79;25920;-83
2020/12/05 05:24:22;;;;;;;62.90;31.68;;;;;;;0.96;78.56;96274.09;1794664;79;25781;-82
2020/12/05 05:27:05;;;;;;;62.62;30.50;;;;;;;0.95;78.75;96274.59;1794855;79;27499;-84
2020/12/05 05:29:41;;;;;;;66.37;31.85;;;;;;;1.04;78.97;96282.81;1769667;79;25818;-85
2020/12/05 05:32:11;;;;;;;60.38;30.95;;;;;;;1.06;78.85;96292.77;1794578;79;25706;-83
2020/12/05 05:34:38;;;;;;;63.75;30.90;;;;;;;0.99;78.73;96290.48;1772314;79;25618;-83
2020/12/05 05:37:16;;;;;;;61.13;31.62;;;;;;;1.05;78.84;96302.25;1794605;79;26300;-83
2020/12/05 05:39:49;;;;;;;60.60;30.10;;;;;;;1.04;78.75;96298.77;1789589;79;27507;-84
2020/12/05 05:42:34;;;;;;;;;;;;;;;1.07;78.83;96296.25;1797012;79;26886;-84
2020/12/05 05:45:26;;;;;;;54.40;27.30;;;;;;;1.12;79.04;96291.71;1773670;79;25830;-85
2020/12/05 05:48:04;;;;;;;;;;;;;;;1.18;79.08;96297.15;1780079;79;26441;-84
2020/12/05 05:50:35;;;;;;;60.17;28.07;;;;;;;1.20;78.90;96302.29;1794499;79;25717;-86
2020/12/05 05:53:07;;;;;;;65.25;32.67;;;;;;;1.17;78.77;96301.31;1779821;79;27460;-85
2020/12/05 05:55:46;;;;;;;63.42;31.00;;;;;;;1.14;78.75;96299.01;1788248;79;26069;-84
2020/12/05 05:58:17;;;;;;;64.82;30.68;;;;;;;1.12;78.79;96303.67;1794710;79;25691;-83
2020/12/05 06:00:48;;;;;;;61.73;32.25;;;;;;;1.15;78.83;96308.14;1794378;79;26486;-85
2020/12/05 06:03:22;;;;;;;60.63;31.77;;;;;;;1.14;78.71;96314.95;1794319;79;25758;-85
2020/12/05 06:05:55;;;;;;;56.80;30.45;;;;;;;1.07;78.71;96313.03;1794265;79;27602;-83
2020/12/05 06:08:26;;;;;;;57.30;30.37;;;;;;;1.07;78.76;96310.88;1779354;79;25888;-86
2020/12/05 06:11:03;;;;;;;54.25;29.95;;;;;;;1.06;78.78;96318.02;1788438;79;25730;-83
2020/12/05 06:13:32;;;;;;;59.15;30.50;;;;;;;1.06;78.77;96307.39;1794652;79;26385;-84
2020/12/05 06:16:01;;;;;;;62.43;33.35;;;;;;;1.07;78.78;96313.03;1794610;79;25819;-84
2020/12/05 06:18:29;;;;;;;61.50;31.12;;;;;;;1.07;78.88;96307.71;1794604;79;27503;-84
2020/12/05 06:20:57;;;;;;;67.03;33.58;;;;;;;1.13;78.93;96313.30;1780353;79;25816;-85
2020/12/05 06:23:44;;;;;;;66.92;33.33;;;;;;;1.08;78.90;96320.00;1763102;79;25794;-83
2020/12/05 06:26:19;;;;;;;73.80;33.05;;;;;;;1.09;78.93;96322.13;1762314;79;25751;-84
2020/12/05 06:28:47;;;;;;;74.35;34.35;;;;;;;1.17;79.04;96330.55;1751621;79;26356;-82
2020/12/05 06:31:14;;;;;;;75.05;34.33;;;;;;;1.22;79.02;96333.48;1763539;79;27501;-85
2020/12/05 06:33:46;;;;;;;69.05;34.73;;;;;;;1.14;78.87;96346.84;1763085;79;26050;-83
2020/12/05 06:36:34;;;;;;;77.67;35.92;;;;;;;1.08;78.88;96348.41;1763309;79;32317;-83
2020/12/05 06:39:10;;;;;;;66.17;32.67;;;;;;;1.15;79.06;96361.80;1763292;79;26432;-81
2020/12/05 06:41:48;;;;;;;67.78;31.52;;;;;;;1.25;79.15;96358.39;1784314;79;25884;-82
2020/12/05 06:44:22;;;;;;;67.78;32.05;;;;;;;1.27;79.04;96365.19;1774219;79;28549;-83
2020/12/05 06:47:05;;;;;;;67.78;33.42;;;;;;;1.27;78.90;96368.34;1795118;79;25738;-84
2020/12/05 06:49:44;;;;;;;64.17;32.90;;;;;;;1.29;78.92;96363.68;1804179;79;25755;-82
2020/12/05 06:52:29;;;;;;;62.55;30.77;;;;;;;1.32;78.98;96365.98;1788937;80;25795;-81
2020/12/05 06:55:16;;;;;;;70.20;33.28;;;;;;;1.29;78.80;96371.66;1842804;77;26019;-81
2020/12/05 06:57:44;;;;;;;78.55;39.25;;;;;;;1.25;78.81;96378.33;1818240;77;28361;-81
2020/12/05 07:00:24;;;;;;;79.65;40.35;;;;;;;1.21;78.88;96377.05;1828281;77;26201;-81
2020/12/05 07:03:02;;;;;;;82.78;41.42;;;;;;;1.16;78.91;96373.58;1842823;77;25805;-82
2020/12/05 07:05:43;;;;;;;83.62;40.25;;;;;;;1.13;79.01;96387.72;1849113;77;25737;-82
2020/12/05 07:08:33;;;;;;;86.65;38.05;;;;;;;1.16;79.16;96390.03;1853076;77;25831;-84
2020/12/05 07:11:16;;;;;;;85.57;39.48;;;;;;;1.22;79.26;96387.98;1854478;77;27540;-84
2020/12/05 07:13:50;;;;;;;74.85;39.20;;;;;;;1.17;79.16;96390.36;1851575;77;25326;-84
2020/12/05 07:16:25;;;;;;;78.10;40.45;;;;;;;1.15;79.19;96389.70;1826991;77;25811;-83
2020/12/05 07:18:59;;;;;;;89.13;41.05;;;;;;;1.17;79.28;96387.70;1850664;77;26026;-85
2020/12/05 07:21:29;;;;;;;73.47;39.48;;;;;;;1.16;79.30;96378.07;1851430;77;25743;-85
2020/12/05 07:23:57;;;;;;;74.35;39.42;;;;;;;1.19;79.39;96381.21;1853479;77;28642;-85
2020/12/05 07:26:25;;;;;;;75.87;38.88;;;;;;;1.24;79.38;96392.12;1819877;77;25661;-83
2020/12/05 07:28:56;;;;;;;78.17;38.53;;;;;;;1.31;79.34;96404.22;1834853;77;25813;-83
2020/12/05 07:31:23;;;;;;;76.05;39.05;;;;;;;1.30;79.27;96392.75;1851617;77;26825;-83
2020/12/05 07:33:51;;;;;;;82.78;39.65;;;;;;;1.24;79.11;96395.28;1851747;77;25657;-82
2020/12/05 07:36:18;;;;;;;80.00;38.20;;;;;;;1.16;79.16;96392.69;1851632;77;27595;-83
2020/12/05 07:38:47;;;;;;;80.03;40.15;;;;;;;1.13;79.18;96395.20;1840192;77;25744;-83
2020/12/05 07:41:19;;;;;;;82.02;42.00;;;;;;;1.14;79.36;96386.22;1835130;77;25809;-84
2020/12/05 07:43:47;;;;;;;76.85;42.08;;;;;;;1.15;79.35;96392.36;1811776;77;25870;-84
2020/12/05 07:46:16;;;;;;;75.03;40.45;;;;;;;1.13;79.43;96392.53;1826788;77;25765;-81
2020/12/05 07:48:44;;;;;;;90.62;44.90;;;;;;;1.13;79.43;96391.70;1839907;77;28552;-82
2020/12/05 07:51:15;;;;;;;92.92;42.38;;;;;;;1.10;79.44;96395.54;1851429;77;25697;-81
2020/12/05 07:53:44;;;;;;;86.45;46.40;;;;;;;1.10;79.47;96390.22;1851644;77;25248;-84
2020/12/05 07:56:21;;;;;;;88.78;47.50;;;;;;;1.11;79.56;96387.89;1851498;77;26846;-82
2020/12/05 07:58:55;;;;;;;95.25;48.75;;;;;;;1.14;79.62;96394.69;1826349;77;25687;-83
2020/12/05 08:01:52;;;;;;;78.65;42.23;;;;;;;1.19;79.70;96392.34;1818196;77;27553;-84
2020/12/05 08:04:52;;;;;;;76.50;40.92;;;;;;;1.20;79.63;96387.35;1814913;77;26598;-82
2020/12/05 08:07:39;;;;;;;87.22;41.40;;;;;;;1.22;79.73;96393.30;1826065;77;25805;-84
2020/12/05 08:10:13;;;;;;;71.53;38.30;;;;;;;1.26;79.92;96394.10;1798527;77;26457;-84
2020/12/05 08:13:21;;;;;;;79.87;41.15;;;;;;;1.32;79.97;96400.05;1813118;77;26331;-81
2020/12/05 08:16:08;;;;;;;90.12;47.58;;;;;;;1.34;80.07;96403.84;1800374;77;27491;-83
2020/12/05 08:18:37;;;;;;;81.57;44.48;;;;;;;1.43;80.21;96396.14;1820720;77;26093;-83
2020/12/05 08:21:06;;;;;;;92.82;52.35;;;;;;;1.42;80.17;96396.64;1809429;77;25728;-83
2020/12/05 08:23:37;;;;;;;76.72;43.28;;;;;;;1.49;80.29;96395.41;1809606;77;26459;-83
2020/12/05 08:26:14;;;;;;;70.75;42.15;;;;;;;1.57;80.49;96396.66;1793855;77;25313;-82
2020/12/05 08:28:46;;;;;;;69.62;38.02;;;;;;;1.66;80.63;96398.26;1809658;77;27484;-84
2020/12/05 08:31:14;;;;;;;60.80;30.40;;;;;;;1.81;80.78;96388.98;1835037;77;26258;-83
2020/12/05 08:33:50;;;;;;;45.15;25.05;;;;;;;2.20;81.56;96379.38;1822718;77;25782;-82
2020/12/05 08:36:31;;;;;;;33.88;19.35;;;;;;;2.64;82.20;96379.36;1809421;77;26366;-82
2020/12/05 08:39:11;;;;;;;24.40;13.93;;;;;;;3.13;82.56;96359.49;1809836;77;25702;-83
2020/12/05 08:41:48;;;;;;;19.25;13.35;;;;;;;3.62;82.74;96360.02;1812920;77;27498;-82
2020/12/05 08:44:18;;;;;;;19.70;11.90;;;;;;;4.16;82.61;96352.16;1806204;77;25712;-83
2020/12/05 08:46:46;;;;;;;16.90;10.90;;;;;;;4.63;82.34;96354.03;1831688;77;25742;-83
2020/12/05 08:49:19;;;;;;;18.15;11.15;;;;;;;5.01;81.93;96360.22;1823171;77;25861;-78
2020/12/05 08:51:50;;;;;;;16.67;11.43;;;;;;;5.41;81.50;96347.75;1842782;77;25894;-84
2020/12/05 08:54:18;;;;;;;18.17;11.75;;;;;;;5.73;81.10;96358.97;1842663;77;27485;-84
2020/12/05 08:56:47;;;;;;;17.67;11.08;;;;;;;6.01;80.74;96365.48;1842585;77;25752;-83
2020/12/05 08:59:20;;;;;;;17.25;11.78;;;;;;;6.33;80.37;96373.14;1834585;77;36991;-83
2020/12/05 09:01:58;;;;;;;19.00;11.78;;;;;;;6.64;79.89;96369.74;1873052;76;25922;-86
2020/12/05 09:04:34;;;;;;;17.85;11.78;;;;;;;6.81;79.54;96381.66;1853163;77;25802;-86
2020/12/05 09:07:14;;;;;;;19.10;12.65;;;;;;;6.99;79.18;96388.20;1855647;77;27696;-84
2020/12/05 09:09:44;;;;;;;19.20;12.78;;;;;;;7.13;78.77;96392.44;1826769;77;26716;-86
2020/12/05 09:12:18;;;;;;;24.77;14.70;;;;;;;7.22;78.51;96393.86;1852362;76;25818;-85
2020/12/05 09:14:47;;;;;;;23.55;14.20;;;;;;;7.35;78.13;96396.47;1852317;77;25829;-84
2020/12/05 09:17:25;;;;;;;25.30;15.45;;;;;;;7.38;77.72;96387.97;1825781;77;25708;-83
2020/12/05 09:19:58;;;;;;;21.48;13.10;;;;;;;7.42;77.43;96399.11;1812221;77;27411;-84
2020/12/05 09:22:34;;;;;;;21.73;12.88;;;;;;;7.45;77.37;96399.50;1807155;77;26193;-85
2020/12/05 09:25:04;;;;;;;18.55;11.93;;;;;;;7.54;77.29;96402.75;1830809;77;25700;-84
2020/12/05 09:27:43;;;;;;;21.33;13.18;;;;;;;7.63;77.09;96400.09;1807717;77;25706;-85
2020/12/05 09:30:14;;;;;;;19.42;13.22;;;;;;;7.73;76.72;96400.98;1802977;77;25809;-82
2020/12/05 09:32:47;;;;;;;23.77;14.80;;;;;;;7.75;76.40;96391.64;1819113;77;28475;-85
2020/12/05 09:35:19;;;;;;;22.00;12.05;;;;;;;7.77;76.15;96382.84;1798837;77;26088;-84
2020/12/05 09:37:47;;;;;;;17.85;11.25;;;;;;;7.79;76.10;96390.69;1795980;77;25777;-82
2020/12/05 09:40:17;;;;;;;18.30;12.03;;;;;;;7.87;75.96;96386.38;1816080;77;26168;-84
2020/12/05 09:42:46;;;;;;;15.95;10.32;;;;;;;7.91;75.73;96396.48;1817058;76;26125;-83
2020/12/05 09:45:15;;;;;;;18.87;12.43;;;;;;;7.96;75.48;96379.72;1841494;77;27484;-82
2020/12/05 09:47:43;;;;;;;18.55;12.05;;;;;;;8.00;75.34;96372.84;1825426;77;26243;-84
2020/12/05 09:50:12;;;;;;;20.77;13.15;;;;;;;8.08;75.22;96361.83;1827971;77;25765;-84
2020/12/05 09:52:40;;;;;;;14.40;9.85;;;;;;;8.10;74.94;96365.09;1833088;77;26167;-87
2020/12/05 09:55:07;;;;;;;15.95;10.88;;;;;;;8.14;74.86;96358.24;1842239;76;25634;-84
2020/12/05 09:57:34;;;;;;;15.88;10.38;;;;;;;8.20;74.67;96354.69;1839069;77;27493;-83
2020/12/05 10:00:05;;;;;;;14.30;8.75;;;;;;;8.24;74.61;96351.83;1843907;77;26028;-86
2020/12/05 10:02:33;;;;;;;15.80;9.68;;;;;;;8.36;74.57;96336.34;1827918;77;25763;-86
2020/12/05 10:05:00;;;;;;;14.65;9.50;;;;;;;8.46;74.21;96332.59;1833443;77;25934;-83
2020/12/05 10:07:28;;;;;;;16.97;9.50;;;;;;;8.54;74.08;96338.53;1837839;77;25725;-83
2020/12/05 10:09:55;;;;;;;16.37;10.25;;;;;;;8.64;74.03;96339.34;1837135;77;27573;-84
2020/12/05 10:12:22;;;;;;;13.68;9.15;;;;;;;8.74;73.73;96340.15;1820506;77;25791;-84
2020/12/05 10:14:50;;;;;;;14.70;8.90;;;;;;;8.85;73.60;96343.42;1831683;77;25724;-83
2020/12/05 10:17:17;;;;;;;14.30;9.35;;;;;;;8.92;73.08;96339.62;1831963;77;26339;-84
2020/12/05 10:19:44;;;;;;;12.43;8.58;;;;;;;8.97;72.78;96342.44;1836386;77;25666;-84
2020/12/05 10:22:12;;;;;;;14.90;8.60;;;;;;;9.01;72.59;96354.41;1842652;77;28490;-87
2020/12/05 10:24:39;;;;;;;13.50;9.00;;;;;;;9.06;72.55;96355.61;1836587;77;25810;-86
2020/12/05 10:27:07;;;;;;;14.13;9.03;;;;;;;9.12;72.38;96352.81;1817076;77;25845;-84
2020/12/05 10:29:34;;;;;;;10.82;7.80;;;;;;;9.18;72.14;96345.15;1830988;77;25820;-87
2020/12/05 10:32:02;;;;;;;13.95;8.20;;;;;;;9.22;71.97;96348.22;1842811;77;25850;-83
2020/12/05 10:34:29;;;;;;;11.33;8.20;;;;;;;9.27;71.99;96338.94;1829357;77;27479;-86
2020/12/05 10:36:57;;;;;;;11.10;8.40;;;;;;;9.33;71.77;96336.66;1803275;77;25753;-85
2020/12/05 10:39:24;;;;;;;13.62;8.70;;;;;;;9.36;71.56;96316.02;1808829;77;25740;-83
2020/12/05 10:41:53;;;;;;;14.53;9.83;;;;;;;9.41;71.31;96316.16;1810552;77;26368;-84
2020/12/05 10:44:21;;;;;;;14.10;9.93;;;;;;;9.45;71.08;96325.40;1842774;77;25740;-86
2020/12/05 10:46:49;;;;;;;11.33;8.75;;;;;;;9.50;71.10;96327.41;1846917;77;28443;-84
2020/12/05 10:49:18;;;;;;;15.13;9.08;;;;;;;9.54;70.81;96328.61;1835969;77;25744;-85
2020/12/05 10:51:47;;;;;;;12.23;9.03;;;;;;;9.59;70.72;96329.54;1834259;77;25700;-84
2020/12/05 10:54:15;;;;;;;15.83;9.43;;;;;;;9.65;70.59;96331.33;1842997;77;26134;-84
2020/12/05 10:56:43;;;;;;;15.75;10.28;;;;;;;9.66;70.26;96329.45;1842787;77;25741;-84
2020/12/05 10:59:10;;;;;;;25.30;16.37;;;;;;;9.68;70.08;96329.49;1812884;77;28374;-84
2020/12/05 11:01:38;;;;;;;26.12;16.37;;;;;;;9.67;69.81;96331.89;1834187;77;26188;-87
2020/12/05 11:04:05;;;;;;;42.43;26.50;;;;;;;9.54;69.44;96336.69;1857879;77;25602;-87
2020/12/05 11:06:33;;;;;;;55.80;36.03;;;;;;;9.43;69.27;96338.80;1857910;77;25303;-85
2020/12/05 11:09:00;;;;;;;68.83;42.88;;;;;;;9.29;69.15;96333.63;1834195;77;25713;-85
2020/12/05 11:11:28;;;;;;;76.07;46.50;;;;;;;9.19;69.07;96331.16;1858152;77;28429;-86
2020/12/05 11:13:55;;;;;;;84.32;49.70;;;;;;;9.07;69.01;96335.68;1857957;77;25748;-85
2020/12/05 11:16:24;;;;;;;84.97;52.53;;;;;;;8.92;68.95;96335.58;1834213;77;26081;-84
2020/12/05 11:18:54;;;;;;;91.20;53.60;;;;;;;8.79;69.16;96337.09;1857906;77;25660;-84
2020/12/05 11:21:21;;;;;;;88.70;55.90;;;;;;;8.73;69.06;96358.68;1857803;77;25820;-85
2020/12/05 11:23:49;;;;;;;85.85;51.98;;;;;;;8.46;68.94;96354.94;1857838;77;28357;-84
2020/12/05 11:26:21;;;;;;;81.50;49.88;;;;;;;8.30;69.13;96363.06;1857827;77;25751;-84
2020/12/05 11:28:49;;;;;;;90.62;53.78;;;;;;;8.15;69.22;96364.44;1857890;77;25788;-86
2020/12/05 11:31:17;;;;;;;93.12;55.67;;;;;;;7.97;69.37;96371.13;1857870;77;26271;-85
2020/12/05 11:33:44;;;;;;;87.80;52.33;;;;;;;7.86;69.70;96376.67;1857950;77;26300;-84
2020/12/05 11:36:13;;;;;;;86.82;54.83;;;;;;;7.70;69.53;96387.98;1857853;77;28566;-84
2020/12/05 11:38:40;;;;;;;90.83;53.73;;;;;;;7.61;69.87;96394.66;1857853;77;25850;-85
2020/12/05 11:41:08;;;;;;;93.35;53.65;;;;;;;7.54;70.04;96399.55;1857855;77;25811;-83
2020/12/05 11:43:36;;;;;;;91.20;54.23;;;;;;;7.35;70.09;96393.79;1857555;77;25791;-85